Time;durP1;ratioP1;P1;durP2;ratioP2;P2;SDS_P1;SDS_P2;PMS_P1;PMS_P2;Temp;Humidity;BMP_temperature;BMP_pressure;BME280_temperature;BME280_humidity;BME280_pressure;Samples;Min_cycle;Max_cycle;Signal;HPM_P1;HPM_P2
2023/01/23 00:01:26;;;;;;;3.88;2.72;;;;;;;8.87;85.21;95041.59;5109487;28;20251;-79
2023/01/23 00:03:54;;;;;;;3.42;2.35;;;;;;;8.83;85.32;95035.22;5109571;28;20225;-81
2023/01/23 00:06:25;;;;;;;3.25;2.20;;;;;;;8.78;85.33;95021.81;5109613;28;20209;-79
2023/01/23 00:08:53;;;;;;;4.10;3.10;;;;;;;8.90;84.90;95040.97;5102230;28;20217;-79
2023/01/23 00:11:22;;;;;;;4.72;2.10;;;;;;;8.95;85.19;95040.84;5109020;28;20240;-80
2023/01/23 00:13:50;;;;;;;3.22;2.22;;;;;;;8.88;85.19;95048.59;5109686;28;20209;-80
2023/01/23 00:16:20;;;;;;;4.00;2.60;;;;;;;8.89;85.08;95042.06;5109621;28;20201;-80
2023/01/23 00:18:47;;;;;;;4.03;2.30;;;;;;;8.93;85.00;95045.75;5109894;28;20768;-79
2023/01/23 00:21:16;;;;;;;1.98;1.80;;;;;;;8.88;85.22;95037.81;5109602;28;20278;-79
2023/01/23 00:23:44;;;;;;;5.93;3.50;;;;;;;8.84;85.24;95039.50;5097355;28;20721;-79
2023/01/23 00:26:14;;;;;;;5.80;2.75;;;;;;;8.86;85.34;95046.22;5109422;28;20190;-79
2023/01/23 00:28:41;;;;;;;4.32;2.78;;;;;;;8.83;85.66;95035.22;5108941;28;20213;-79
2023/01/23 00:31:14;;;;;;;7.03;3.20;;;;;;;8.80;85.72;95038.50;5097059;28;20924;-79
2023/01/23 00:33:41;;;;;;;6.25;3.50;;;;;;;8.78;86.21;95038.00;5109125;28;20208;-79
2023/01/23 00:36:08;;;;;;;3.78;2.45;;;;;;;8.69;86.61;95047.97;5109473;28;20212;-79
2023/01/23 00:38:36;;;;;;;11.15;3.65;;;;;;;8.71;86.55;95048.47;5109315;28;20262;-79
2023/01/23 00:41:03;;;;;;;3.08;1.77;;;;;;;8.71;85.68;95048.47;5109232;28;20566;-80
2023/01/23 00:43:30;;;;;;;2.25;1.75;;;;;;;8.64;85.90;95042.66;5109412;28;20229;-79
2023/01/23 00:45:58;;;;;;;5.50;2.55;;;;;;;8.65;85.60;95049.66;5109222;28;20586;-81
2023/01/23 00:48:26;;;;;;;5.82;2.22;;;;;;;8.63;85.69;95046.47;5108864;28;20266;-79
2023/01/23 00:50:53;;;;;;;3.45;2.22;;;;;;;8.70;85.48;95057.66;5109541;28;20338;-81
2023/01/23 00:53:20;;;;;;;4.25;2.60;;;;;;;8.68;85.44;95054.47;5108774;28;20206;-80
2023/01/23 00:55:47;;;;;;;1.48;1.35;;;;;;;8.66;85.62;95048.56;5109383;28;20198;-78
2023/01/23 00:58:15;;;;;;;2.97;1.83;;;;;;;8.71;85.52;95061.97;5109211;28;20688;-79
2023/01/23 01:00:42;;;;;;;2.95;1.58;;;;;;;8.65;85.82;95060.47;5109279;28;20254;-78
2023/01/23 01:03:08;;;;;;;3.20;2.00;;;;;;;8.61;86.01;95060.25;5109334;28;20197;-80
2023/01/23 01:05:37;;;;;;;3.58;2.30;;;;;;;8.55;86.70;95056.09;5108980;28;20282;-78
2023/01/23 01:08:04;;;;;;;4.05;2.72;;;;;;;8.57;86.75;95064.69;5109192;28;20193;-79
2023/01/23 01:10:31;;;;;;;2.78;1.90;;;;;;;8.52;86.85;95057.50;5109244;28;20201;-78
2023/01/23 01:13:00;;;;;;;3.40;1.88;;;;;;;8.54;86.18;95066.09;5108256;28;20204;-78
2023/01/23 01:15:27;;;;;;;3.00;2.30;;;;;;;8.62;86.17;95066.47;5109307;28;20197;-80
2023/01/23 01:17:54;;;;;;;3.75;1.98;;;;;;;8.59;86.06;95064.41;5084397;28;20549;-79
2023/01/23 01:20:22;;;;;;;3.30;1.13;;;;;;;8.63;86.10;95068.88;5088676;28;20240;-78
2023/01/23 01:22:50;;;;;;;1.88;1.30;;;;;;;8.64;86.55;95066.97;5108025;28;20560;-79
2023/01/23 01:25:18;;;;;;;11.15;2.17;;;;;;;8.61;86.72;95081.09;5108056;28;20221;-79
2023/01/23 01:27:45;;;;;;;3.30;2.20;;;;;;;8.59;86.82;95077.91;5109522;28;20549;-78
2023/01/23 01:30:12;;;;;;;2.63;1.60;;;;;;;8.62;86.61;95083.47;5109781;28;20255;-78
2023/01/23 01:32:40;;;;;;;3.85;1.95;;;;;;;8.66;86.43;95089.06;5109994;28;20263;-76
2023/01/23 01:35:08;;;;;;;1.75;1.17;;;;;;;8.69;86.90;95077.66;5109264;28;20708;-79
2023/01/23 01:37:36;;;;;;;2.17;1.50;;;;;;;8.74;86.21;95058.66;5109040;28;20280;-79
2023/01/23 01:40:06;;;;;;;3.40;2.15;;;;;;;8.74;86.21;95080.25;5108948;28;20211;-77
2023/01/23 01:42:39;;;;;;;3.20;2.10;;;;;;;8.76;86.58;95089.63;5108524;28;20976;-79
2023/01/23 01:45:07;;;;;;;2.80;1.35;;;;;;;8.82;86.55;95103.84;5108482;28;20715;-79
2023/01/23 01:47:34;;;;;;;1.95;1.52;;;;;;;8.75;87.06;95088.03;5108527;28;20233;-77
2023/01/23 01:50:06;;;;;;;3.42;1.70;;;;;;;8.77;86.89;95090.44;5108637;28;20204;-78
2023/01/23 01:52:33;;;;;;;2.85;1.80;;;;;;;8.85;86.83;95097.84;5108173;28;20338;-78
2023/01/23 01:55:03;;;;;;;1.65;1.40;;;;;;;8.83;86.58;95089.22;5108631;28;20251;-77
2023/01/23 01:57:36;;;;;;;2.53;2.05;;;;;;;8.77;86.79;95090.44;5108500;28;20198;-79
2023/01/23 02:00:07;;;;;;;3.78;2.00;;;;;;;8.78;86.70;95089.34;5111448;28;20201;-80
2023/01/23 02:02:37;;;;;;;3.08;1.55;;;;;;;8.80;86.76;95100.63;5112255;28;20202;-79
2023/01/23 02:05:07;;;;;;;3.15;2.47;;;;;;;8.77;87.08;95095.84;5111839;28;20229;-78
2023/01/23 02:07:37;;;;;;;3.58;2.03;;;;;;;8.70;87.83;95100.88;5112041;28;20630;-79
2023/01/23 02:10:06;;;;;;;5.35;2.35;;;;;;;8.65;88.79;95098.28;5112458;28;20613;-79
2023/01/23 02:12:37;;;;;;;1.92;1.42;;;;;;;8.66;89.31;95097.16;5112586;28;20205;-80
2023/01/23 02:15:07;;;;;;;3.63;2.25;;;;;;;8.54;89.98;95093.09;5112099;28;20194;-77
2023/01/23 02:17:35;;;;;;;2.20;1.38;;;;;;;8.55;89.92;95105.50;5112014;28;20209;-79
2023/01/23 02:20:10;;;;;;;4.25;2.65;;;;;;;8.54;90.32;95103.91;5111705;28;20208;-80
2023/01/23 02:22:45;;;;;;;3.75;1.58;;;;;;;8.44;91.49;95109.53;5111883;28;20205;-78
2023/01/23 02:25:20;;;;;;;4.60;2.20;;;;;;;8.39;91.79;95108.81;5111628;28;20699;-80
2023/01/23 02:27:48;;;;;;;3.80;2.22;;;;;;;8.37;92.01;95109.13;5091497;28;20219;-80
2023/01/23 02:30:14;;;;;;;3.05;1.65;;;;;;;8.33;92.11;95113.53;5106050;28;20251;-80
2023/01/23 02:32:41;;;;;;;2.63;1.90;;;;;;;8.33;92.55;95113.53;5111596;28;20316;-79
2023/01/23 02:35:15;;;;;;;4.65;2.47;;;;;;;8.23;93.27;95102.91;5111181;28;20715;-80
2023/01/23 02:37:46;;;;;;;3.80;2.05;;;;;;;8.21;93.66;95113.19;5111399;28;20681;-78
2023/01/23 02:40:13;;;;;;;4.15;2.15;;;;;;;8.18;93.74;95105.72;5111492;28;20856;-81
2023/01/23 02:42:43;;;;;;;3.92;2.25;;;;;;;8.19;93.94;95118.09;5111503;28;20217;-78
2023/01/23 02:45:12;;;;;;;6.90;2.70;;;;;;;8.12;94.25;95106.91;5111702;28;20229;-80
2023/01/23 02:47:38;;;;;;;5.75;3.03;;;;;;;8.11;94.01;95106.09;5112458;28;20728;-80
2023/01/23 02:50:06;;;;;;;7.97;2.17;;;;;;;8.19;93.97;95118.09;5111188;28;20194;-78
2023/01/23 02:52:33;;;;;;;8.05;2.70;;;;;;;8.13;93.92;95111.19;5111037;28;20557;-80
2023/01/23 02:55:00;;;;;;;5.07;2.45;;;;;;;8.08;93.92;95108.59;5111355;28;20536;-79
2023/01/23 02:57:26;;;;;;;4.90;2.58;;;;;;;8.10;93.43;95106.41;5110826;28;20243;-78
2023/01/23 03:02:39;;;;;;;3.08;2.00;;;;;;;8.08;93.43;95112.09;5110671;28;20942;-81
2023/01/23 03:05:06;;;;;;;4.07;1.73;;;;;;;8.11;93.55;95105.31;5111224;28;20240;-79
2023/01/23 03:07:33;;;;;;;2.83;1.67;;;;;;;8.11;93.61;95116.09;5110908;28;20258;-80
2023/01/23 03:10:00;;;;;;;1.92;1.27;;;;;;;8.05;93.80;95106.50;5110386;28;20198;-79
2023/01/23 03:12:27;;;;;;;1.77;1.48;;;;;;;8.01;93.71;95105.50;5110920;28;20197;-79
2023/01/23 03:14:55;;;;;;;3.25;1.90;;;;;;;8.01;94.16;95110.91;5111398;28;20209;-79
2023/01/23 03:17:22;;;;;;;4.63;1.67;;;;;;;8.00;94.31;95109.31;5110718;28;20486;-79
2023/01/23 03:19:51;;;;;;;2.63;2.03;;;;;;;8.02;93.56;95115.19;5111091;28;20740;-81
2023/01/23 03:22:17;;;;;;;1.92;1.60;;;;;;;7.94;94.08;95110.47;5111007;28;20205;-81
2023/01/23 03:24:44;;;;;;;4.57;2.63;;;;;;;7.98;94.36;95108.78;5110687;28;20233;-78
2023/01/23 03:27:11;;;;;;;4.60;2.60;;;;;;;7.98;94.20;95111.50;5096743;28;20202;-79
2023/01/23 03:32:24;;;;;;;3.28;1.80;;;;;;;8.00;93.47;95098.50;5110406;28;20205;-78
2023/01/23 03:34:53;;;;;;;2.67;1.80;;;;;;;7.97;93.76;95099.09;5110349;28;20226;-79
2023/01/23 03:37:19;;;;;;;3.33;1.50;;;;;;;7.97;93.77;95093.72;5110239;28;20356;-77
2023/01/23 03:42:33;;;;;;;2.92;1.30;;;;;;;7.97;93.29;95097.22;5097576;28;20296;-79
2023/01/23 03:45:00;;;;;;;1.45;1.08;;;;;;;7.97;93.42;95099.09;5110209;28;20225;-80
2023/01/23 03:47:27;;;;;;;2.50;1.30;;;;;;;7.96;93.25;95092.91;5110025;28;20270;-79
2023/01/23 03:49:55;;;;;;;1.90;1.42;;;;;;;7.99;93.21;95103.09;5108047;28;20234;-79
2023/01/23 03:52:22;;;;;;;4.18;2.17;;;;;;;7.99;93.23;95096.91;5099187;28;20189;-79
2023/01/23 03:54:48;;;;;;;7.15;2.20;;;;;;;7.93;93.49;95098.88;5109902;28;20260;-79
2023/01/23 03:57:15;;;;;;;2.10;1.60;;;;;;;7.96;93.54;95102.91;5110160;28;20236;-78
2023/01/23 03:59:42;;;;;;;2.47;2.05;;;;;;;7.91;93.66;95101.13;5109642;28;20254;-79
2023/01/23 04:02:09;;;;;;;2.13;1.58;;;;;;;7.93;93.65;95106.19;5109264;28;20209;-79
2023/01/23 04:04:36;;;;;;;3.45;1.98;;;;;;;7.88;93.83;95111.69;5110321;28;20242;-79
2023/01/23 04:07:04;;;;;;;2.33;1.63;;;;;;;7.87;93.89;95107.41;5110150;28;20206;-79
2023/01/23 04:09:31;;;;;;;3.83;2.10;;;;;;;7.90;93.61;95125.69;5110101;28;20273;-78
2023/01/23 04:11:59;;;;;;;4.25;2.28;;;;;;;7.87;93.85;95126.28;5109793;28;20193;-77
2023/01/23 04:14:29;;;;;;;3.97;2.20;;;;;;;7.79;94.16;95125.84;5110206;28;20301;-79
2023/01/23 04:16:56;;;;;;;2.92;2.05;;;;;;;7.83;94.06;95126.88;5109910;28;20263;-79
2023/01/23 04:19:22;;;;;;;2.50;2.08;;;;;;;7.77;94.29;95127.25;5109538;28;20205;-78
2023/01/23 04:21:49;;;;;;;4.00;2.05;;;;;;;7.77;94.36;95125.38;5108614;28;20198;-78
2023/01/23 04:24:18;;;;;;;4.47;2.50;;;;;;;7.76;94.41;95121.06;5109600;28;20205;-78
2023/01/23 04:26:45;;;;;;;4.05;2.10;;;;;;;7.83;94.07;95131.44;5109031;28;20229;-78
2023/01/23 04:29:12;;;;;;;3.00;1.95;;;;;;;7.73;94.51;95121.66;5109273;28;20202;-78
2023/01/23 04:31:38;;;;;;;3.55;1.83;;;;;;;7.73;94.24;95131.66;5110413;28;20205;-78
2023/01/23 04:34:05;;;;;;;1.80;1.50;;;;;;;7.85;93.78;95140.06;5109608;28;20306;-81
2023/01/23 04:36:32;;;;;;;2.00;1.40;;;;;;;7.80;93.59;95138.22;5109532;28;20201;-81
2023/01/23 04:38:59;;;;;;;5.07;2.25;;;;;;;7.87;93.05;95137.06;5109299;28;20247;-79
2023/01/23 04:41:29;;;;;;;2.95;1.98;;;;;;;7.87;92.58;95132.47;5109680;28;20209;-78
2023/01/23 04:43:55;;;;;;;3.10;1.30;;;;;;;7.87;92.62;95142.47;5109387;28;20257;-80
2023/01/23 04:46:22;;;;;;;1.83;1.50;;;;;;;7.87;92.62;95135.16;5108867;28;20218;-80
2023/01/23 04:48:49;;;;;;;3.20;2.03;;;;;;;7.80;92.40;95122.06;5109258;28;20251;-80
2023/01/23 04:51:16;;;;;;;7.30;3.45;;;;;;;7.83;91.57;95131.44;5109263;28;20197;-80
2023/01/23 04:53:42;;;;;;;4.45;1.33;;;;;;;7.84;91.58;95133.84;5109154;28;20262;-81
2023/01/23 04:56:09;;;;;;;1.15;1.02;;;;;;;7.77;91.65;95133.47;5108968;28;20962;-78
2023/01/23 04:58:37;;;;;;;2.85;1.73;;;;;;;7.78;92.08;95129.66;5109015;28;20193;-79
2023/01/23 05:01:08;;;;;;;2.28;1.45;;;;;;;7.67;92.84;95133.63;5108781;28;20664;-78
2023/01/23 05:03:36;;;;;;;2.05;1.52;;;;;;;7.69;93.35;95141.41;5109203;28;20233;-78
2023/01/23 05:06:02;;;;;;;3.45;1.75;;;;;;;7.65;93.77;95135.03;5109233;28;20278;-80
2023/01/23 05:08:29;;;;;;;2.08;1.70;;;;;;;7.62;93.88;95138.31;5111214;28;20708;-83
2023/01/23 05:10:56;;;;;;;3.20;1.85;;;;;;;7.57;94.36;95133.81;5109128;28;20206;-76
2023/01/23 05:13:23;;;;;;;5.38;2.10;;;;;;;7.62;94.48;95139.13;5109198;28;20190;-80
2023/01/23 05:15:51;;;;;;;3.30;1.98;;;;;;;7.61;94.03;95129.44;5108709;28;20554;-79
2023/01/23 05:18:17;;;;;;;2.63;1.52;;;;;;;7.70;94.19;95138.44;5109152;28;20198;-80
2023/01/23 05:20:44;;;;;;;5.15;2.38;;;;;;;7.63;94.05;95148.81;5092647;28;20252;-75
2023/01/23 05:23:11;;;;;;;4.15;2.15;;;;;;;7.68;94.17;95140.63;5098196;28;20202;-80
2023/01/23 05:25:38;;;;;;;4.07;2.50;;;;;;;7.70;93.40;95149.22;5108979;28;20290;-80
2023/01/23 05:28:04;;;;;;;3.08;1.80;;;;;;;7.68;93.30;95137.13;5108869;28;20247;-77
2023/01/23 05:30:31;;;;;;;4.80;1.92;;;;;;;7.68;93.21;95158.69;5108620;28;20205;-77
2023/01/23 05:32:59;;;;;;;4.05;2.22;;;;;;;7.69;93.54;95153.00;5108582;28;20194;-79
2023/01/23 05:35:26;;;;;;;2.28;1.77;;;;;;;7.76;92.43;95158.81;5111722;28;20651;-77
2023/01/23 05:37:53;;;;;;;4.40;1.92;;;;;;;7.74;91.96;95166.41;5112227;28;20724;-79
2023/01/23 05:40:21;;;;;;;2.33;1.10;;;;;;;7.85;91.40;95167.81;5112633;28;20209;-78
2023/01/23 05:42:48;;;;;;;1.67;1.13;;;;;;;7.89;91.31;95172.63;5112331;28;20779;-80
2023/01/23 05:45:15;;;;;;;2.38;1.48;;;;;;;7.87;91.12;95170.22;5111864;28;20250;-79
2023/01/23 05:47:42;;;;;;;2.75;1.63;;;;;;;7.87;91.02;95183.72;5112461;28;20208;-78
2023/01/23 05:50:15;;;;;;;3.10;1.83;;;;;;;7.85;90.82;95186.69;5112006;28;20267;-78
2023/01/23 05:52:41;;;;;;;1.27;1.13;;;;;;;7.82;91.15;95187.28;5099393;28;20218;-79
2023/01/23 05:55:08;;;;;;;3.83;2.58;;;;;;;7.83;91.41;95186.19;5111899;28;20267;-78
2023/01/23 05:57:35;;;;;;;2.97;1.75;;;;;;;7.85;90.57;95205.59;5112220;28;20274;-79
2023/01/23 06:00:03;;;;;;;3.42;1.63;;;;;;;7.93;89.79;95200.59;5111925;28;20721;-78
2023/01/23 06:02:30;;;;;;;1.50;1.27;;;;;;;7.89;89.29;95195.00;5111836;28;20934;-79
2023/01/23 06:04:57;;;;;;;5.43;2.30;;;;;;;7.99;88.94;95205.63;5111975;28;20718;-78
2023/01/23 06:07:25;;;;;;;3.90;2.05;;;;;;;8.37;88.78;95206.28;5105092;28;20697;-75
2023/01/23 06:09:52;;;;;;;4.10;2.45;;;;;;;8.85;88.83;95206.69;5097696;28;20586;-71
2023/01/23 06:12:19;;;;;;;3.03;1.77;;;;;;;8.92;86.43;95222.47;5110616;28;20828;-73
2023/01/23 06:14:47;;;;;;;2.53;1.63;;;;;;;9.03;84.96;95217.66;5106194;28;20252;-73
2023/01/23 06:17:14;;;;;;;6.50;2.50;;;;;;;8.42;85.99;95218.91;5108719;28;20197;-76
2023/01/23 06:19:41;;;;;;;2.50;1.52;;;;;;;8.15;86.99;95214.25;5111774;28;20197;-77
2023/01/23 06:22:08;;;;;;;1.77;1.10;;;;;;;8.08;87.45;95220.00;5111480;28;20201;-79
2023/01/23 06:24:36;;;;;;;2.15;1.42;;;;;;;8.08;87.74;95219.22;5111214;28;20302;-80
2023/01/23 06:27:07;;;;;;;1.35;1.10;;;;;;;8.04;87.60;95218.22;5111636;28;20225;-80
2023/01/23 06:29:33;;;;;;;1.52;1.05;;;;;;;8.03;87.79;95220.13;5109614;28;20208;-79
2023/01/23 06:32:01;;;;;;;3.17;0.88;;;;;;;8.00;87.66;95217.22;5110994;28;20613;-78
2023/01/23 06:34:27;;;;;;;1.80;1.20;;;;;;;8.03;87.58;95222.03;5111296;28;20241;-77
2023/01/23 06:36:54;;;;;;;1.25;1.05;;;;;;;8.03;87.92;95232.81;5111301;28;20246;-82
2023/01/23 06:39:21;;;;;;;2.33;1.70;;;;;;;8.01;88.12;95224.22;5111475;28;20209;-82
2023/01/23 06:41:49;;;;;;;5.88;1.40;;;;;;;7.94;88.55;95229.97;5111359;28;20765;-81
2023/01/23 06:44:16;;;;;;;2.72;1.55;;;;;;;7.87;88.66;95244.94;5111322;28;20201;-80
2023/01/23 06:46:42;;;;;;;1.42;1.20;;;;;;;7.82;89.40;95248.53;5111260;28;20788;-78
2023/01/23 06:49:10;;;;;;;3.08;1.83;;;;;;;7.78;89.70;95242.94;5111480;28;20197;-81
2023/01/23 06:51:37;;;;;;;4.45;2.00;;;;;;;7.69;90.00;95217.72;5111572;28;20198;-81
2023/01/23 06:54:04;;;;;;;6.75;1.58;;;;;;;7.71;90.10;95244.38;5100416;28;20626;-80
2023/01/23 06:56:30;;;;;;;6.55;2.20;;;;;;;7.68;90.60;95234.19;5107519;28;20672;-78
2023/01/23 06:58:58;;;;;;;2.35;1.73;;;;;;;7.62;91.14;95238.88;5110406;28;20201;-77
2023/01/23 07:01:27;;;;;;;3.78;2.13;;;;;;;7.55;91.78;95243.81;5110492;28;20197;-83
2023/01/23 07:03:54;;;;;;;4.63;2.45;;;;;;;7.58;91.92;95264.00;5110988;28;20201;-79
2023/01/23 07:06:20;;;;;;;5.13;2.70;;;;;;;7.52;92.56;95263.28;5110995;28;20298;-79
2023/01/23 07:08:48;;;;;;;8.00;2.40;;;;;;;7.51;92.89;95264.41;5111051;28;20796;-80
2023/01/23 07:11:15;;;;;;;4.72;2.72;;;;;;;7.42;93.44;95271.50;5111112;28;20883;-86
2023/01/23 07:13:42;;;;;;;7.20;3.40;;;;;;;7.40;94.07;95268.31;5111020;28;20198;-80
2023/01/23 07:16:10;;;;;;;3.35;2.22;;;;;;;7.35;94.47;95271.09;5111272;28;20237;-77
2023/01/23 07:18:37;;;;;;;6.57;3.58;;;;;;;7.31;94.67;95280.84;5110950;28;20193;-75
2023/01/23 07:21:06;;;;;;;6.20;3.70;;;;;;;7.32;94.74;95271.66;5110444;28;20561;-77
2023/01/23 07:23:33;;;;;;;5.53;3.65;;;;;;;7.26;95.10;95279.00;5110390;28;20722;-74
2023/01/23 07:26:00;;;;;;;12.13;4.07;;;;;;;7.23;95.46;95268.03;5096064;28;20308;-76
2023/01/23 07:28:27;;;;;;;7.03;3.53;;;;;;;7.26;95.90;95291.69;5110416;28;20266;-80
2023/01/23 07:30:54;;;;;;;8.48;4.53;;;;;;;7.27;96.06;95285.19;5110305;28;20656;-81
2023/01/23 07:33:23;;;;;;;7.80;4.05;;;;;;;7.29;96.22;95291.09;5110266;28;20216;-77
2023/01/23 07:35:49;;;;;;;9.05;3.78;;;;;;;7.09;97.19;95295.69;5110280;28;20379;-79
2023/01/23 07:38:16;;;;;;;7.07;3.08;;;;;;;7.03;97.69;95294.13;5110438;28;20198;-76
2023/01/23 07:40:44;;;;;;;6.90;3.28;;;;;;;7.02;97.58;95295.22;5110396;28;20671;-80
2023/01/23 07:43:11;;;;;;;7.43;3.85;;;;;;;6.97;98.95;95297.97;5110521;28;20221;-77
2023/01/23 07:45:38;;;;;;;6.78;3.65;;;;;;;6.98;99.37;95294.19;5110221;28;20289;-77
2023/01/23 07:48:08;;;;;;;6.65;3.00;;;;;;;7.02;98.99;95295.22;5096164;28;20638;-80
2023/01/23 07:50:36;;;;;;;8.30;4.22;;;;;;;6.99;99.08;95298.47;5109510;28;20735;-76
2023/01/23 07:53:03;;;;;;;6.07;3.42;;;;;;;7.02;98.90;95300.59;5109324;28;20206;-77
2023/01/23 07:55:30;;;;;;;9.93;4.55;;;;;;;6.97;98.85;95307.97;5109788;28;20542;-77
2023/01/23 07:57:57;;;;;;;8.60;3.83;;;;;;;6.99;98.86;95316.53;5108750;28;20251;-76
2023/01/23 08:00:24;;;;;;;9.05;4.63;;;;;;;6.99;98.58;95321.91;5109889;28;20221;-77
2023/01/23 08:02:51;;;;;;;8.95;4.18;;;;;;;7.02;98.19;95322.16;5109574;28;20205;-78
2023/01/23 08:05:18;;;;;;;8.30;4.13;;;;;;;7.06;97.75;95323.19;5109687;28;20201;-78
2023/01/23 08:07:46;;;;;;;9.00;4.10;;;;;;;7.07;97.41;95343.66;5109500;28;20225;-78
2023/01/23 08:10:13;;;;;;;6.13;2.85;;;;;;;6.98;97.21;95329.19;5109085;28;20194;-77
2023/01/23 08:12:39;;;;;;;6.88;3.00;;;;;;;6.99;96.74;95333.50;5108456;28;20262;-76
2023/01/23 08:15:07;;;;;;;3.03;1.77;;;;;;;7.10;96.27;95335.00;5109170;28;20206;-77
2023/01/23 08:17:34;;;;;;;3.58;2.35;;;;;;;7.07;95.89;95324.81;5102589;28;20202;-79
2023/01/23 08:20:01;;;;;;;5.35;2.90;;;;;;;7.10;95.04;95318.03;5109226;28;20676;-75
2023/01/23 08:22:28;;;;;;;6.72;3.28;;;;;;;7.10;93.74;95335.00;5108136;28;20262;-75
2023/01/23 08:24:56;;;;;;;4.68;2.05;;;;;;;7.07;93.36;95346.34;5109442;28;20198;-78
2023/01/23 08:27:23;;;;;;;9.32;3.25;;;;;;;6.98;93.18;95350.75;5107670;28;20905;-77
2023/01/23 08:29:49;;;;;;;5.07;2.47;;;;;;;7.07;93.34;95359.00;5109445;28;20194;-79
2023/01/23 08:32:16;;;;;;;6.68;3.60;;;;;;;7.05;92.56;95351.22;5109264;28;20560;-76
2023/01/23 08:34:43;;;;;;;6.70;2.53;;;;;;;7.06;91.91;95344.75;5109014;28;20294;-76
2023/01/23 08:37:10;;;;;;;5.13;1.73;;;;;;;7.12;91.47;95348.16;5109485;28;20205;-77
2023/01/23 08:39:37;;;;;;;4.55;2.22;;;;;;;7.11;90.91;95371.59;5109820;28;20606;-78
2023/01/23 08:42:05;;;;;;;4.43;2.60;;;;;;;7.03;90.98;95356.09;5109227;28;20285;-79
2023/01/23 08:44:33;;;;;;;3.42;2.40;;;;;;;7.05;90.41;95362.00;5109053;28;20210;-76
2023/01/23 08:47:01;;;;;;;5.22;2.75;;;;;;;7.05;89.59;95359.28;5108519;28;20600;-78
2023/01/23 08:49:28;;;;;;;3.17;1.60;;;;;;;7.02;89.88;95364.44;5108969;28;20201;-78
2023/01/23 08:51:55;;;;;;;3.78;2.28;;;;;;;7.09;89.91;95365.72;5108808;28;20209;-77
2023/01/23 08:54:22;;;;;;;4.18;1.95;;;;;;;7.15;89.77;95363.75;5108795;28;20202;-81
2023/01/23 08:56:49;;;;;;;3.95;2.00;;;;;;;7.06;89.77;95382.47;5109084;28;20292;-76
2023/01/23 08:59:17;;;;;;;4.55;1.90;;;;;;;7.12;89.75;95375.91;5109039;28;20205;-77
2023/01/23 09:01:46;;;;;;;3.03;1.45;;;;;;;7.21;89.17;95365.31;5108908;28;20253;-75
2023/01/23 09:04:13;;;;;;;2.88;1.42;;;;;;;7.24;88.80;95377.41;5108772;28;20858;-76
2023/01/23 09:06:40;;;;;;;3.30;1.75;;;;;;;7.37;88.81;95372.13;5108142;28;20229;-76
2023/01/23 09:09:06;;;;;;;4.68;2.40;;;;;;;7.33;88.38;95371.09;5112421;28;20255;-76
2023/01/23 09:11:33;;;;;;;5.20;1.88;;;;;;;7.31;88.32;95373.25;5112664;28;20689;-80
2023/01/23 09:14:00;;;;;;;4.80;2.70;;;;;;;7.39;88.30;95371.81;5113787;28;20266;-80
2023/01/23 09:16:28;;;;;;;6.05;2.85;;;;;;;7.37;88.15;95377.50;5113354;28;20201;-78
2023/01/23 09:18:55;;;;;;;4.20;2.30;;;;;;;7.51;87.39;95377.63;5112677;28;20208;-79
2023/01/23 09:21:22;;;;;;;3.25;1.92;;;;;;;7.52;86.90;95379.19;5112722;28;20197;-78
2023/01/23 09:23:49;;;;;;;3.17;2.15;;;;;;;7.35;87.15;95373.50;5112925;28;20282;-78
2023/01/23 09:26:16;;;;;;;2.42;1.50;;;;;;;7.40;87.94;95385.00;5113001;28;20198;-79
2023/01/23 09:28:43;;;;;;;3.45;2.05;;;;;;;7.35;88.27;95378.88;5111879;28;20194;-77
2023/01/23 09:31:12;;;;;;;2.55;1.40;;;;;;;7.33;89.03;95381.06;5111476;28;20197;-80
2023/01/23 09:33:40;;;;;;;2.50;1.80;;;;;;;7.22;89.57;95366.13;5112652;28;20257;-78
2023/01/23 09:36:08;;;;;;;4.53;2.38;;;;;;;7.13;89.97;95377.50;5111710;28;20296;-78
2023/01/23 09:38:35;;;;;;;2.65;1.75;;;;;;;7.10;89.67;95370.03;5112217;28;20205;-77
2023/01/23 09:41:09;;;;;;;5.22;2.97;;;;;;;7.21;90.09;95372.59;5112572;28;20750;-75
2023/01/23 09:43:42;;;;;;;10.38;2.13;;;;;;;7.14;89.98;95352.19;5112053;28;20202;-74
2023/01/23 09:46:17;;;;;;;5.47;2.45;;;;;;;7.23;90.15;95359.63;5111973;28;20718;-75
2023/01/23 09:48:47;;;;;;;3.17;1.80;;;;;;;7.12;90.36;95351.66;5091396;28;20295;-75
2023/01/23 09:51:20;;;;;;;3.13;2.13;;;;;;;7.07;90.50;95362.50;5092355;28;20240;-75
2023/01/23 09:53:47;;;;;;;2.75;1.30;;;;;;;7.16;90.57;95367.25;5100006;28;20251;-75
2023/01/23 09:56:26;;;;;;;2.22;1.20;;;;;;;6.97;91.56;95368.00;5111847;28;20243;-76
2023/01/23 09:59:00;;;;;;;4.93;2.83;;;;;;;6.96;93.53;95355.63;5111630;28;20265;-75
2023/01/23 10:01:29;;;;;;;4.45;2.67;;;;;;;6.91;94.01;95369.16;5111662;28;20747;-74
2023/01/23 10:04:00;;;;;;;4.25;2.55;;;;;;;6.80;95.07;95373.03;5111760;28;20293;-74
2023/01/23 10:06:30;;;;;;;1.92;1.67;;;;;;;6.67;96.21;95371.03;5111439;28;20208;-75
2023/01/23 10:09:15;;;;;;;3.88;1.52;;;;;;;6.54;96.85;95371.69;5111948;28;20206;-76
2023/01/23 10:11:55;;;;;;;4.35;2.45;;;;;;;6.50;97.36;95370.66;5100493;28;20266;-76
2023/01/23 10:14:46;;;;;;;9.48;3.47;;;;;;;6.34;98.05;95360.00;5111908;28;20265;-76
2023/01/23 10:17:22;;;;;;;3.75;2.20;;;;;;;6.32;99.98;95367.56;5111954;28;20198;-76
2023/01/23 10:20:07;;;;;;;5.07;2.72;;;;;;;6.29;100.00;95368.13;5110508;28;20197;-76
2023/01/23 10:22:37;;;;;;;5.07;2.05;;;;;;;6.26;100.00;95363.31;5111459;28;20278;-75
2023/01/23 10:25:16;;;;;;;3.38;2.10;;;;;;;6.24;100.00;95364.69;5111573;28;20197;-76
2023/01/23 10:27:46;;;;;;;4.25;3.10;;;;;;;6.20;100.00;95359.06;5097649;28;20278;-74
2023/01/23 10:30:21;;;;;;;5.18;3.63;;;;;;;6.15;100.00;95361.00;5111350;28;20201;-76
2023/01/23 10:32:52;;;;;;;4.75;2.22;;;;;;;6.19;100.00;95367.41;5111478;28;20197;-75
2023/01/23 10:35:24;;;;;;;5.55;3.25;;;;;;;6.18;100.00;95366.59;5111341;28;20368;-76
2023/01/23 10:38:00;;;;;;;5.60;2.70;;;;;;;6.23;100.00;95363.06;5109971;28;20637;-75
2023/01/23 10:43:13;;;;;;;4.40;3.20;;;;;;;6.23;100.00;95368.47;5097287;28;20225;-78
2023/01/23 10:45:41;;;;;;;3.78;2.85;;;;;;;6.21;100.00;95365.25;5099078;28;20205;-76
2023/01/23 10:48:29;;;;;;;8.85;3.80;;;;;;;6.21;100.00;95355.28;5111049;28;21097;-77
2023/01/23 10:50:58;;;;;;;6.25;3.10;;;;;;;6.25;100.00;95359.03;5111365;28;20198;-75
2023/01/23 10:53:25;;;;;;;4.13;2.40;;;;;;;6.17;100.00;95348.84;5110328;28;20202;-75
2023/01/23 10:55:57;;;;;;;6.90;3.13;;;;;;;6.23;100.00;95358.50;5111075;28;20226;-79
2023/01/23 10:58:32;;;;;;;5.90;2.47;;;;;;;6.23;100.00;95360.38;5110352;28;20659;-77
2023/01/23 11:00:59;;;;;;;6.05;3.65;;;;;;;6.23;100.00;95363.88;5110755;28;20202;-78
2023/01/23 11:03:32;;;;;;;6.90;3.80;;;;;;;6.22;100.00;95361.47;5110185;28;20262;-78
2023/01/23 11:06:04;;;;;;;7.18;4.10;;;;;;;6.16;100.00;95362.59;5111020;28;20766;-76
2023/01/23 11:08:32;;;;;;;8.57;4.78;;;;;;;6.10;100.00;95369.91;5109926;28;20285;-77
2023/01/23 11:11:22;;;;;;;10.63;4.93;;;;;;;6.07;100.00;95357.00;5110408;28;20290;-77
2023/01/23 11:14:01;;;;;;;8.95;5.50;;;;;;;6.08;100.00;95374.75;5110203;28;20213;-76
2023/01/23 11:16:28;;;;;;;7.15;4.25;;;;;;;6.11;100.00;95366.13;5097938;28;20601;-76
2023/01/23 11:19:03;;;;;;;9.13;5.63;;;;;;;6.11;100.00;95368.81;5109852;28;20201;-83
2023/01/23 11:21:34;;;;;;;11.93;5.03;;;;;;;6.13;100.00;95373.94;5110416;28;20200;-81
2023/01/23 11:24:18;;;;;;;6.88;3.65;;;;;;;6.82;100.00;95354.72;5109847;28;20616;-80
2023/01/23 11:26:45;;;;;;;8.98;5.10;;;;;;;6.27;100.00;95362.25;5110418;28;20263;-82
2023/01/23 11:29:21;;;;;;;6.20;3.58;;;;;;;6.21;100.00;95366.03;5110236;28;20225;-84
2023/01/23 11:31:51;;;;;;;9.77;3.88;;;;;;;6.16;100.00;95374.16;5110790;28;20197;-78
2023/01/23 11:34:20;;;;;;;9.88;5.35;;;;;;;6.16;100.00;95362.59;5110159;28;20275;-80
2023/01/23 11:36:54;;;;;;;7.78;4.03;;;;;;;6.23;100.00;95363.88;5110227;28;20254;-80
2023/01/23 11:39:37;;;;;;;6.45;3.17;;;;;;;6.13;100.00;95361.28;5108609;28;20197;-80
2023/01/23 11:42:04;;;;;;;10.68;5.68;;;;;;;6.15;100.00;95363.69;5110110;28;20221;-80
2023/01/23 11:44:33;;;;;;;10.32;5.07;;;;;;;6.14;100.00;95357.50;5110323;28;20200;-78
2023/01/23 11:47:23;;;;;;;8.77;5.05;;;;;;;6.15;100.00;95369.06;5108378;28;20672;-79
2023/01/23 11:50:18;;;;;;;8.38;4.25;;;;;;;6.07;100.00;95359.69;5109113;28;20266;-77
2023/01/23 11:52:55;;;;;;;7.82;4.90;;;;;;;6.09;100.00;95368.31;5109580;28;20194;-81
2023/01/23 11:55:50;;;;;;;5.82;3.60;;;;;;;6.10;100.00;95369.09;5088973;28;20619;-82
2023/01/23 11:58:30;;;;;;;11.60;4.82;;;;;;;5.86;100.00;95368.97;5108004;28;20197;-82
2023/01/23 12:01:07;;;;;;;4.53;2.38;;;;;;;6.02;100.00;95357.03;5109813;28;20193;-81